Time;durP1;ratioP1;P1;durP2;ratioP2;P2;SDS_P1;SDS_P2;PMS_P1;PMS_P2;Temp;Humidity;BMP_temperature;BMP_pressure;BME280_temperature;BME280_humidity;BME280_pressure;Samples;Min_cycle;Max_cycle;Signal;HPM_P1;HPM_P2
2022/01/13 00:02:24;;;;;;;25.23;18.10;;;1.60;99.90;;;;;;4972222;28;20574;-65
2022/01/13 00:04:50;;;;;;;27.15;18.67;;;1.60;99.90;;;;;;4968055;28;20167;-65
2022/01/13 00:07:18;;;;;;;22.90;16.90;;;1.60;99.90;;;;;;4967465;28;20513;-65
2022/01/13 00:09:44;;;;;;;26.73;17.77;;;1.60;99.90;;;;;;4972669;28;20379;-65
2022/01/13 00:12:11;;;;;;;24.85;17.30;;;1.60;99.90;;;;;;4970849;28;20030;-65
2022/01/13 00:14:55;;;;;;;25.00;17.35;;;1.60;99.90;;;;;;4966464;28;20039;-64
2022/01/13 00:20:09;;;;;;;19.98;16.20;;;1.70;99.90;;;;;;4970159;28;20038;-65
2022/01/13 00:25:00;;;;;;;26.48;18.10;;;1.70;99.90;;;;;;4971169;28;20055;-65
2022/01/13 00:27:28;;;;;;;32.53;18.38;;;1.70;99.90;;;;;;4966070;28;20019;-64
2022/01/13 00:29:56;;;;;;;20.92;15.65;;;1.70;99.90;;;;;;4966218;28;20081;-66
2022/01/13 00:32:25;;;;;;;23.17;17.23;;;1.70;99.90;;;;;;4968352;28;20032;-65
2022/01/13 00:34:50;;;;;;;23.33;16.08;;;1.70;99.90;;;;;;4972083;28;20034;-65
2022/01/13 00:37:16;;;;;;;17.00;13.32;;;1.70;99.90;;;;;;4970125;28;20030;-65
2022/01/13 00:39:41;;;;;;;19.83;13.73;;;1.80;99.90;;;;;;4966342;28;20504;-65
2022/01/13 00:42:08;;;;;;;14.38;12.77;;;1.80;99.90;;;;;;4966988;28;20030;-64
2022/01/13 00:44:37;;;;;;;19.42;13.93;;;1.80;99.90;;;;;;4970788;28;20042;-65
2022/01/13 00:47:05;;;;;;;16.75;13.48;;;1.80;99.90;;;;;;4971206;28;20062;-65
2022/01/13 00:49:31;;;;;;;15.00;13.15;;;1.90;99.90;;;;;;4967834;28;20725;-66
2022/01/13 00:51:57;;;;;;;17.15;12.55;;;1.90;99.90;;;;;;4964937;28;20114;-65
2022/01/13 00:54:23;;;;;;;12.40;11.15;;;1.90;99.90;;;;;;4966485;28;20027;-65
2022/01/13 00:56:49;;;;;;;12.55;11.30;;;1.90;99.90;;;;;;4964594;28;20023;-65
2022/01/13 00:59:15;;;;;;;12.95;11.40;;;1.90;99.90;;;;;;4973110;28;20027;-65
2022/01/13 01:01:46;;;;;;;12.98;11.25;;;1.90;99.90;;;;;;4975215;28;20103;-65
2022/01/13 01:04:12;;;;;;;;;;;2.00;99.90;;;;;;4970610;28;20038;-65
2022/01/13 01:06:53;;;;;;;12.15;10.55;;;2.00;99.90;;;;;;4969021;28;19910;-65
2022/01/13 01:09:37;;;;;;;12.40;11.20;;;2.00;99.90;;;;;;4964237;28;20031;-64
2022/01/13 01:12:03;;;;;;;12.55;11.35;;;2.00;99.90;;;;;;4965183;28;20050;-65
2022/01/13 01:14:32;;;;;;;11.60;10.48;;;2.00;99.90;;;;;;4965965;28;20046;-65
2022/01/13 01:16:58;;;;;;;12.38;11.18;;;2.00;99.90;;;;;;4969655;28;20041;-64
2022/01/13 01:19:27;;;;;;;12.60;10.88;;;2.00;99.90;;;;;;4963614;28;20043;-65
2022/01/13 01:22:29;;;;;;;15.85;11.45;;;2.00;99.90;;;;;;4962365;28;20027;-65
2022/01/13 01:27:28;;;;;;;12.38;10.95;;;2.00;99.90;;;;;;4980191;28;20039;-65
2022/01/13 01:30:03;;;;;;;11.82;10.70;;;2.00;99.90;;;;;;4973961;28;20035;-65
2022/01/13 01:32:31;;;;;;;13.95;11.20;;;2.00;99.90;;;;;;4967869;28;20542;-65
2022/01/13 01:35:01;;;;;;;13.15;11.35;;;2.00;99.90;;;;;;4963173;28;20558;-65
2022/01/13 01:37:29;;;;;;;12.77;11.50;;;2.00;99.90;;;;;;4969200;28;20026;-65
2022/01/13 01:39:57;;;;;;;12.38;11.13;;;2.00;99.90;;;;;;4971568;28;20023;-65
2022/01/13 01:42:24;;;;;;;12.05;10.43;;;2.00;99.90;;;;;;4976625;28;20053;-65
2022/01/13 01:44:54;;;;;;;11.85;10.32;;;2.00;99.90;;;;;;4964897;28;20019;-65
2022/01/13 01:47:21;;;;;;;11.20;10.05;;;2.00;99.90;;;;;;4963141;28;20070;-65
2022/01/13 01:49:52;;;;;;;13.20;10.95;;;2.00;99.90;;;;;;4970766;28;20031;-65
2022/01/13 01:52:19;;;;;;;13.02;11.73;;;2.00;99.90;;;;;;4964925;28;20038;-65
2022/01/13 01:54:46;;;;;;;14.73;11.15;;;2.00;99.90;;;;;;4965264;28;20042;-65
2022/01/13 01:57:13;;;;;;;13.88;12.43;;;2.00;99.90;;;;;;4958844;28;20035;-65
2022/01/13 01:59:41;;;;;;;11.63;10.45;;;2.10;99.90;;;;;;4960698;28;20039;-65
2022/01/13 02:02:08;;;;;;;13.70;12.23;;;2.10;99.90;;;;;;4967780;28;20037;-64
2022/01/13 02:04:36;;;;;;;12.90;11.27;;;2.10;99.90;;;;;;4972811;28;20204;-65
2022/01/13 02:07:04;;;;;;;13.02;11.68;;;2.00;99.90;;;;;;4968588;28;20023;-65
2022/01/13 02:09:31;;;;;;;12.93;11.45;;;2.00;99.90;;;;;;4967611;28;20085;-65
2022/01/13 02:12:03;;;;;;;13.90;12.52;;;2.00;99.90;;;;;;4969751;28;20027;-65
2022/01/13 02:17:07;;;;;;;15.60;13.02;;;2.00;99.90;;;;;;4967114;28;20032;-64
2022/01/13 02:19:35;;;;;;;14.48;12.05;;;2.10;99.90;;;;;;4965031;28;20126;-65
2022/01/13 02:22:01;;;;;;;15.80;11.57;;;2.00;99.90;;;;;;4969811;28;20031;-65
2022/01/13 02:24:27;;;;;;;14.63;13.00;;;2.00;99.90;;;;;;4962361;28;20110;-66
2022/01/13 02:26:52;;;;;;;16.00;12.93;;;2.00;99.90;;;;;;4962574;28;20077;-64
2022/01/13 02:29:18;;;;;;;12.93;11.63;;;2.00;99.90;;;;;;4967326;28;20027;-65
2022/01/13 02:31:44;;;;;;;14.85;13.05;;;2.00;99.90;;;;;;4970329;28;20422;-65
2022/01/13 02:34:10;;;;;;;16.63;12.80;;;2.00;99.90;;;;;;4972247;28;20387;-65
2022/01/13 02:36:37;;;;;;;13.13;11.63;;;2.00;99.90;;;;;;4967223;28;20023;-64
2022/01/13 02:39:04;;;;;;;14.30;12.82;;;2.00;99.90;;;;;;4964077;28;20490;-64
2022/01/13 02:41:30;;;;;;;16.00;12.52;;;2.00;99.90;;;;;;4969026;28;20043;-65
2022/01/13 02:43:58;;;;;;;15.05;12.57;;;2.00;99.90;;;;;;4968074;28;20538;-65
2022/01/13 02:46:31;;;;;;;16.92;13.20;;;2.00;99.90;;;;;;4970304;28;20046;-65
2022/01/13 02:48:58;;;;;;;16.48;13.23;;;2.00;99.90;;;;;;4966204;28;20030;-65
2022/01/13 02:51:23;;;;;;;15.50;13.32;;;2.00;99.90;;;;;;4961115;28;20039;-65
2022/01/13 02:53:49;;;;;;;13.20;11.77;;;2.00;99.90;;;;;;4968378;28;20022;-64
2022/01/13 02:56:15;;;;;;;14.27;12.45;;;2.00;99.90;;;;;;4965775;28;20118;-65
2022/01/13 02:58:41;;;;;;;15.10;13.48;;;2.00;99.90;;;;;;4967903;28;20038;-65
2022/01/13 03:01:06;;;;;;;18.75;11.80;;;2.00;99.90;;;;;;4963005;28;20117;-65
2022/01/13 03:03:34;;;;;;;12.77;11.45;;;2.00;99.90;;;;;;4956386;28;20023;-65
2022/01/13 03:06:12;;;;;;;12.48;11.18;;;2.10;99.90;;;;;;4971361;28;20045;-66
2022/01/13 03:08:42;;;;;;;21.48;12.70;;;2.00;99.90;;;;;;4958863;28;20814;-66
2022/01/13 03:11:07;;;;;;;17.50;12.30;;;2.00;99.90;;;;;;4967395;28;20373;-65
2022/01/13 03:13:34;;;;;;;12.15;10.95;;;2.00;99.90;;;;;;4967454;28;20038;-65
2022/01/13 03:16:05;;;;;;;15.80;11.27;;;2.00;99.90;;;;;;4962131;28;20034;-65
2022/01/13 03:18:31;;;;;;;13.60;11.95;;;2.00;99.90;;;;;;4969171;28;20034;-66
2022/01/13 03:20:56;;;;;;;11.30;10.10;;;2.00;99.90;;;;;;4980806;28;20113;-64
2022/01/13 03:23:22;;;;;;;11.77;10.23;;;2.00;99.90;;;;;;4963904;28;20502;-65
2022/01/13 03:25:48;;;;;;;12.45;11.18;;;2.00;99.90;;;;;;4972409;28;20077;-64
2022/01/13 03:28:17;;;;;;;12.27;10.73;;;1.90;99.90;;;;;;4962665;28;20057;-65
2022/01/13 03:30:44;;;;;;;13.75;12.35;;;1.90;99.90;;;;;;4968554;28;20047;-64
2022/01/13 03:33:11;;;;;;;15.88;11.00;;;1.90;99.90;;;;;;4964765;28;20027;-65
2022/01/13 03:35:39;;;;;;;13.00;9.90;;;1.90;99.90;;;;;;4960050;28;20028;-65
2022/01/13 03:38:06;;;;;;;9.88;8.90;;;1.90;99.90;;;;;;4968739;28;20236;-65
2022/01/13 03:40:33;;;;;;;10.00;9.00;;;1.90;99.90;;;;;;4962294;28;20043;-65
2022/01/13 03:43:00;;;;;;;10.35;9.27;;;1.90;99.90;;;;;;4963136;28;20046;-65
2022/01/13 03:45:27;;;;;;;9.50;8.50;;;1.90;99.90;;;;;;4969443;28;20620;-65
2022/01/13 03:47:53;;;;;;;9.23;8.32;;;1.90;99.90;;;;;;4970879;28;20035;-65
2022/01/13 03:50:19;;;;;;;11.23;8.73;;;1.90;99.90;;;;;;4968645;28;20079;-65
2022/01/13 03:53:02;;;;;;;10.98;9.50;;;1.90;99.90;;;;;;4965110;28;20505;-64
2022/01/13 03:55:38;;;;;;;9.82;8.88;;;1.90;99.90;;;;;;4966103;28;20569;-65
2022/01/13 03:58:21;;;;;;;9.48;7.85;;;1.90;99.90;;;;;;4967698;28;20035;-65
2022/01/13 04:01:18;;;;;;;9.68;7.18;;;2.00;99.90;;;;;;4965675;28;20115;-65
2022/01/13 04:03:45;;;;;;;10.02;8.95;;;2.00;99.90;;;;;;4971266;28;20113;-65
2022/01/13 04:06:13;;;;;;;8.65;7.85;;;2.00;99.90;;;;;;4963625;28;20023;-65
2022/01/13 04:08:39;;;;;;;11.48;7.50;;;2.00;99.90;;;;;;4956516;28;20520;-65
2022/01/13 04:11:05;;;;;;;9.52;8.20;;;2.00;99.90;;;;;;4969135;28;20035;-65
2022/01/13 04:16:14;;;;;;;16.88;8.18;;;2.00;99.90;;;;;;4971680;28;20041;-65
2022/01/13 04:18:40;;;;;;;9.43;8.48;;;2.00;99.90;;;;;;4964744;28;20099;-66
2022/01/13 04:21:06;;;;;;;10.50;9.30;;;2.00;99.90;;;;;;4971274;28;20023;-65
2022/01/13 04:23:32;;;;;;;9.38;8.48;;;2.00;99.90;;;;;;4967009;28;20042;-65
2022/01/13 04:25:58;;;;;;;8.38;7.57;;;2.00;99.90;;;;;;4962433;28;20027;-65
2022/01/13 04:28:28;;;;;;;9.90;8.32;;;2.00;99.90;;;;;;4969557;28;20049;-65
2022/01/13 04:31:00;;;;;;;10.15;8.23;;;1.90;99.90;;;;;;4969699;28;20027;-65
2022/01/13 04:33:30;;;;;;;8.13;7.20;;;1.90;99.90;;;;;;4968822;28;20061;-65
2022/01/13 04:35:57;;;;;;;9.27;7.20;;;2.00;99.90;;;;;;4970872;28;20023;-65
2022/01/13 04:38:23;;;;;;;8.60;7.72;;;2.00;99.90;;;;;;4964653;28;20378;-65
2022/01/13 04:40:55;;;;;;;10.85;7.88;;;1.90;99.90;;;;;;4980491;28;20054;-65
2022/01/13 04:43:21;;;;;;;8.60;7.72;;;1.90;99.90;;;;;;4968622;28;21789;-65
2022/01/13 04:45:50;;;;;;;9.05;8.15;;;2.00;99.90;;;;;;4965355;28;20491;-65
2022/01/13 04:48:16;;;;;;;8.70;7.80;;;2.00;99.90;;;;;;4973284;28;20505;-65
2022/01/13 04:50:43;;;;;;;9.32;7.00;;;1.90;99.90;;;;;;4973282;28;20030;-64
2022/01/13 04:53:10;;;;;;;9.95;9.02;;;1.90;99.90;;;;;;4973212;28;20027;-65
2022/01/13 04:55:37;;;;;;;10.27;7.22;;;1.90;99.90;;;;;;4968763;28;20109;-67
2022/01/13 04:58:04;;;;;;;10.43;7.85;;;1.90;99.90;;;;;;4964726;28;20035;-64
2022/01/13 05:00:31;;;;;;;8.23;7.40;;;1.90;99.90;;;;;;4972376;28;20483;-65
2022/01/13 05:02:57;;;;;;;8.15;7.35;;;2.00;99.90;;;;;;4968887;28;20041;-65
2022/01/13 05:05:23;;;;;;;8.13;7.43;;;1.90;99.90;;;;;;4968778;28;20082;-64
2022/01/13 05:07:49;;;;;;;9.02;7.65;;;2.00;99.90;;;;;;4971882;28;20031;-64
2022/01/13 05:10:16;;;;;;;9.63;7.72;;;1.90;99.90;;;;;;4970207;28;20446;-65
2022/01/13 05:12:44;;;;;;;8.27;7.22;;;1.90;99.90;;;;;;4964026;28;20038;-65
2022/01/13 05:15:17;;;;;;;9.27;8.38;;;1.90;99.90;;;;;;4962036;28;20043;-65
2022/01/13 05:20:26;;;;;;;11.18;7.72;;;1.90;99.90;;;;;;4968103;28;20039;-65
2022/01/13 05:22:52;;;;;;;9.05;7.28;;;1.90;99.90;;;;;;4967270;28;20035;-65
2022/01/13 05:25:19;;;;;;;8.63;7.70;;;1.90;99.90;;;;;;4972952;28;20173;-65
2022/01/13 05:27:45;;;;;;;9.20;7.95;;;1.90;99.90;;;;;;4973944;28;20068;-65
2022/01/13 05:30:11;;;;;;;14.18;7.70;;;1.90;99.90;;;;;;4964553;28;20015;-65
2022/01/13 05:32:37;;;;;;;9.00;8.18;;;1.90;99.90;;;;;;4973547;28;20363;-65
2022/01/13 05:35:03;;;;;;;8.85;7.75;;;1.90;99.90;;;;;;4971306;28;20038;-65
2022/01/13 05:37:30;;;;;;;9.77;7.95;;;1.90;99.90;;;;;;4966798;28;20585;-65
2022/01/13 05:39:56;;;;;;;9.30;8.40;;;1.90;99.90;;;;;;4963717;28;20053;-68
2022/01/13 05:42:22;;;;;;;8.25;7.40;;;1.90;99.90;;;;;;4962220;28;20382;-65
2022/01/13 05:44:47;;;;;;;8.68;7.82;;;1.90;99.90;;;;;;4968949;28;20012;-66
2022/01/13 05:47:13;;;;;;;9.65;8.75;;;1.90;99.90;;;;;;4964770;28;20107;-65
2022/01/13 05:49:41;;;;;;;11.15;7.63;;;1.90;99.90;;;;;;4973294;28;20026;-65
2022/01/13 05:52:11;;;;;;;11.40;9.35;;;1.90;99.90;;;;;;4978794;28;20023;-65
2022/01/13 05:54:38;;;;;;;11.20;8.52;;;1.90;99.90;;;;;;4969940;28;20027;-65
2022/01/13 05:57:04;;;;;;;9.75;7.93;;;1.90;99.90;;;;;;4969369;28;20055;-65
2022/01/13 05:59:30;;;;;;;12.48;8.57;;;1.90;99.90;;;;;;4959103;28;20038;-65
2022/01/13 06:01:57;;;;;;;8.60;7.70;;;1.90;99.90;;;;;;4962531;28;20039;-65
2022/01/13 06:04:23;;;;;;;10.35;8.73;;;1.90;99.90;;;;;;4971549;28;20039;-65
2022/01/13 06:06:48;;;;;;;10.82;8.60;;;1.80;99.90;;;;;;4970332;28;20438;-64
2022/01/13 06:09:14;;;;;;;11.48;8.00;;;1.80;99.90;;;;;;4967236;28;20364;-65
2022/01/13 06:11:44;;;;;;;9.35;8.23;;;1.80;99.90;;;;;;4969286;28;20043;-65
2022/01/13 06:14:10;;;;;;;14.40;9.07;;;1.80;99.90;;;;;;4960183;28;20038;-66
2022/01/13 06:16:36;;;;;;;8.20;7.40;;;1.80;99.90;;;;;;4957980;28;20043;-65
2022/01/13 06:19:02;;;;;;;8.75;7.88;;;1.90;99.90;;;;;;4963219;28;20709;-65
2022/01/13 06:21:27;;;;;;;10.75;8.02;;;1.80;99.90;;;;;;4968136;28;20375;-65
2022/01/13 06:23:53;;;;;;;9.55;8.38;;;1.80;99.90;;;;;;4973932;28;20022;-64
2022/01/13 06:26:19;;;;;;;8.68;7.78;;;1.90;99.90;;;;;;4981363;28;20143;-65
2022/01/13 06:28:45;;;;;;;8.23;7.47;;;1.80;99.90;;;;;;4969832;28;20023;-65
2022/01/13 06:31:11;;;;;;;10.65;9.55;;;1.80;99.90;;;;;;4978005;28;20059;-65
2022/01/13 06:33:36;;;;;;;10.32;8.57;;;1.80;99.90;;;;;;4972227;28;20023;-64
2022/01/13 06:36:05;;;;;;;9.85;8.75;;;1.80;99.90;;;;;;4966329;28;20057;-65
2022/01/13 06:38:31;;;;;;;13.18;8.85;;;1.70;99.90;;;;;;4964572;28;20027;-66
2022/01/13 06:40:57;;;;;;;10.40;8.65;;;1.70;99.90;;;;;;4966567;28;20061;-64
2022/01/13 06:43:22;;;;;;;10.43;9.43;;;1.70;99.90;;;;;;4966042;28;20054;-65
2022/01/13 06:45:48;;;;;;;9.77;8.77;;;1.80;99.90;;;;;;4968332;28;20035;-64
2022/01/13 06:48:14;;;;;;;11.27;9.10;;;1.70;99.90;;;;;;4976980;28;20146;-64
2022/01/13 06:50:40;;;;;;;9.98;8.95;;;1.70;99.90;;;;;;4958951;28;20062;-65
2022/01/13 06:53:06;;;;;;;11.10;8.90;;;1.70;99.90;;;;;;4962935;28;20061;-65
2022/01/13 06:55:31;;;;;;;11.73;8.57;;;1.70;99.90;;;;;;4972416;28;20041;-65
2022/01/13 06:57:57;;;;;;;10.18;8.65;;;1.70;99.90;;;;;;4971255;28;20058;-65
2022/01/13 07:00:24;;;;;;;12.80;9.82;;;1.70;99.90;;;;;;4965089;28;20037;-65
2022/01/13 07:02:51;;;;;;;10.90;9.65;;;1.70;99.90;;;;;;4966594;28;20016;-65
2022/01/13 07:05:17;;;;;;;12.73;10.82;;;1.70;99.90;;;;;;4975140;28;20038;-65
2022/01/13 07:07:43;;;;;;;17.15;12.60;;;1.70;99.90;;;;;;4971356;28;20031;-64
2022/01/13 07:10:11;;;;;;;15.38;12.23;;;1.80;99.90;;;;;;4974711;28;20490;-65
2022/01/13 07:12:37;;;;;;;17.63;12.95;;;1.80;99.90;;;;;;4963606;28;20038;-65
2022/01/13 07:15:04;;;;;;;14.55;12.40;;;1.80;99.90;;;;;;4962237;28;20386;-64
2022/01/13 07:17:30;;;;;;;18.30;13.73;;;1.80;99.90;;;;;;4969641;28;20039;-64
2022/01/13 07:19:59;;;;;;;16.00;12.57;;;1.80;99.90;;;;;;4968304;28;20027;-65
2022/01/13 07:22:25;;;;;;;12.55;11.25;;;1.80;99.90;;;;;;4962561;28;20046;-65
2022/01/13 07:24:51;;;;;;;15.25;11.98;;;1.80;99.90;;;;;;4957989;28;20098;-65
2022/01/13 07:27:17;;;;;;;13.57;11.75;;;1.80;99.90;;;;;;4964665;28;20019;-65
2022/01/13 07:29:45;;;;;;;13.52;11.32;;;1.80;99.90;;;;;;4966366;28;20031;-65
2022/01/13 07:32:12;;;;;;;13.75;11.52;;;1.80;99.90;;;;;;4964129;28;20037;-67
2022/01/13 07:34:38;;;;;;;13.88;11.20;;;1.90;99.90;;;;;;4975679;28;20510;-65
2022/01/13 07:37:03;;;;;;;16.05;12.15;;;1.90;99.90;;;;;;4970360;28;20042;-65
2022/01/13 07:39:29;;;;;;;16.40;12.98;;;1.90;99.90;;;;;;4966211;28;20035;-66
2022/01/13 07:41:55;;;;;;;16.25;13.15;;;1.90;99.90;;;;;;4966702;28;20030;-64
2022/01/13 07:44:21;;;;;;;18.73;13.75;;;1.90;99.90;;;;;;4964517;28;20453;-65
2022/01/13 07:46:47;;;;;;;16.60;13.43;;;1.90;99.90;;;;;;4968268;28;20049;-65
2022/01/13 07:49:13;;;;;;;20.98;14.50;;;1.90;99.90;;;;;;4969073;28;20030;-65
2022/01/13 07:51:41;;;;;;;17.55;13.45;;;1.90;99.90;;;;;;4966052;28;20030;-64
2022/01/13 07:54:07;;;;;;;15.68;12.73;;;1.90;99.90;;;;;;4959156;28;20031;-65
2022/01/13 07:56:33;;;;;;;17.65;13.73;;;1.90;99.90;;;;;;4952194;28;20039;-65
2022/01/13 07:58:58;;;;;;;14.65;13.13;;;1.90;99.90;;;;;;4958329;28;20031;-65
2022/01/13 08:01:24;;;;;;;18.55;13.80;;;2.00;99.90;;;;;;4967762;28;20038;-65
2022/01/13 08:03:50;;;;;;;14.82;11.70;;;2.00;99.90;;;;;;4967210;28;20027;-65
2022/01/13 08:06:16;;;;;;;16.17;13.90;;;2.10;99.90;;;;;;4968859;28;20038;-64
2022/01/13 08:08:41;;;;;;;21.02;15.07;;;2.10;99.90;;;;;;4962860;28;20407;-65
2022/01/13 08:11:08;;;;;;;17.05;13.68;;;2.10;99.90;;;;;;4967086;28;20121;-65
2022/01/13 08:13:36;;;;;;;16.17;12.52;;;2.20;99.90;;;;;;4968258;28;20039;-65
2022/01/13 08:16:06;;;;;;;16.42;12.77;;;2.20;99.90;;;;;;4973576;28;20613;-64
2022/01/13 08:21:16;;;;;;;15.70;13.52;;;2.30;99.90;;;;;;4971672;28;20061;-65
2022/01/13 08:23:42;;;;;;;18.63;13.40;;;2.30;99.90;;;;;;4968842;28;20320;-65
2022/01/13 08:26:08;;;;;;;17.27;13.90;;;2.40;99.90;;;;;;4968031;28;20027;-65
2022/01/13 08:28:36;;;;;;;17.00;14.20;;;2.40;99.90;;;;;;4965632;28;20134;-65
2022/01/13 08:31:05;;;;;;;17.00;14.00;;;2.40;99.90;;;;;;4967079;28;20038;-64
2022/01/13 08:33:31;;;;;;;17.83;13.23;;;2.50;99.90;;;;;;4964288;28;20082;-64
2022/01/13 08:36:00;;;;;;;15.27;12.98;;;2.40;99.90;;;;;;4971589;28;20031;-64
2022/01/13 08:38:26;;;;;;;16.02;13.02;;;2.50;99.90;;;;;;4978145;28;20039;-65
2022/01/13 08:40:56;;;;;;;16.98;13.40;;;2.50;99.90;;;;;;4974719;28;20023;-65
2022/01/13 08:43:23;;;;;;;18.38;15.25;;;2.50;99.90;;;;;;4970546;28;20501;-65
2022/01/13 08:45:49;;;;;;;15.90;12.55;;;2.60;99.90;;;;;;4964019;28;20482;-64
2022/01/13 08:48:16;;;;;;;15.60;13.38;;;2.60;99.90;;;;;;4961385;28;20027;-65
2022/01/13 08:50:42;;;;;;;14.70;13.02;;;2.60;99.90;;;;;;4974357;28;20034;-64
2022/01/13 08:53:08;;;;;;;18.77;13.73;;;2.60;99.90;;;;;;4975096;28;20038;-64
2022/01/13 08:55:33;;;;;;;19.83;13.00;;;2.60;99.90;;;;;;4968544;28;20435;-65
2022/01/13 08:57:59;;;;;;;18.17;13.90;;;2.50;99.90;;;;;;4967866;28;20081;-65
2022/01/13 09:00:25;;;;;;;15.65;12.68;;;2.60;99.90;;;;;;4964904;28;20476;-65
2022/01/13 09:02:51;;;;;;;20.15;13.57;;;2.60;99.90;;;;;;4969671;28;20028;-64
2022/01/13 09:05:19;;;;;;;18.70;14.38;;;2.60;99.90;;;;;;4963990;28;20147;-65
2022/01/13 09:07:45;;;;;;;18.92;14.40;;;2.70;99.90;;;;;;4961043;28;20041;-65
2022/01/13 09:10:12;;;;;;;17.88;13.45;;;2.80;99.90;;;;;;4971646;28;20391;-64
2022/01/13 09:12:41;;;;;;;16.02;14.38;;;2.80;99.90;;;;;;4965813;28;20075;-65
2022/01/13 09:15:16;;;;;;;21.60;13.65;;;2.80;99.90;;;;;;4970575;28;20015;-65
2022/01/13 09:17:51;;;;;;;19.63;14.52;;;2.80;99.90;;;;;;4978748;28;20403;-65
2022/01/13 09:20:17;;;;;;;21.48;14.38;;;2.80;99.90;;;;;;4971111;28;20050;-65
2022/01/13 09:22:44;;;;;;;21.77;15.27;;;2.80;99.90;;;;;;4963367;28;20064;-66
2022/01/13 09:25:13;;;;;;;19.70;15.52;;;2.90;99.90;;;;;;4968512;28;20023;-65
2022/01/13 09:27:42;;;;;;;19.17;14.43;;;2.80;99.90;;;;;;4972984;28;20086;-65
2022/01/13 09:30:13;;;;;;;22.60;14.82;;;2.90;99.90;;;;;;4970709;28;20105;-65
2022/01/13 09:32:39;;;;;;;25.42;16.70;;;2.80;99.90;;;;;;4969741;28;20027;-65
2022/01/13 09:35:09;;;;;;;24.02;16.77;;;2.90;99.90;;;;;;4967364;28;20103;-64
2022/01/13 09:37:35;;;;;;;20.80;14.73;;;2.80;99.90;;;;;;4961894;28;20035;-65
2022/01/13 09:40:03;;;;;;;20.52;14.82;;;2.80;99.90;;;;;;4966166;28;20085;-64
2022/01/13 09:42:32;;;;;;;24.83;15.27;;;2.90;99.90;;;;;;4973553;28;20066;-65
2022/01/13 09:45:00;;;;;;;22.27;15.32;;;2.90;99.90;;;;;;4974135;28;20022;-65
2022/01/13 09:47:25;;;;;;;20.13;14.45;;;2.90;99.90;;;;;;4968581;28;20068;-64
2022/01/13 09:49:55;;;;;;;23.70;15.50;;;3.00;99.90;;;;;;4969390;28;20114;-65
2022/01/13 09:52:21;;;;;;;26.77;15.93;;;3.10;99.90;;;;;;4963954;28;20139;-65
2022/01/13 09:54:48;;;;;;;21.20;14.93;;;3.10;99.90;;;;;;4963497;28;20486;-65
2022/01/13 09:57:14;;;;;;;30.70;16.55;;;3.20;99.90;;;;;;4969540;28;20027;-65
2022/01/13 09:59:40;;;;;;;24.13;16.30;;;3.20;99.90;;;;;;4968437;28;20023;-65
2022/01/13 10:02:09;;;;;;;19.08;15.35;;;3.30;99.90;;;;;;4962149;28;20038;-65
2022/01/13 10:04:56;;;;;;;24.95;14.57;;;3.40;99.90;;;;;;4962183;28;20031;-66
2022/01/13 10:07:30;;;;;;;29.05;16.17;;;3.50;99.90;;;;;;4967277;28;20961;-65
2022/01/13 10:10:05;;;;;;;21.02;16.02;;;3.50;99.90;;;;;;4968493;28;20034;-64
2022/01/13 10:12:43;;;;;;;23.67;15.20;;;3.50;99.90;;;;;;4967234;28;20660;-64
2022/01/13 10:17:45;;;;;;;28.25;18.25;;;3.40;99.90;;;;;;4964308;28;20031;-65
2022/01/13 10:20:12;;;;;;;35.28;17.90;;;3.40;99.90;;;;;;4971331;28;20038;-67
2022/01/13 10:22:38;;;;;;;30.58;17.35;;;3.40;99.90;;;;;;4977232;28;20027;-65
2022/01/13 10:25:04;;;;;;;29.85;17.50;;;3.40;99.90;;;;;;4967780;28;20106;-65
2022/01/13 10:27:35;;;;;;;27.17;17.13;;;3.30;99.90;;;;;;4965380;28;20038;-65
2022/01/13 10:30:14;;;;;;;34.72;19.23;;;3.30;99.90;;;;;;4969972;28;20965;-65
2022/01/13 10:32:41;;;;;;;28.02;17.35;;;3.30;99.90;;;;;;4962893;28;20660;-65
2022/01/13 10:35:11;;;;;;;32.50;18.20;;;3.40;99.90;;;;;;4966320;28;20026;-65
2022/01/13 10:37:41;;;;;;;27.90;17.80;;;3.30;99.90;;;;;;4967938;28;20033;-65
2022/01/13 10:40:11;;;;;;;27.33;18.35;;;3.40;99.90;;;;;;4962322;28;20482;-65
2022/01/13 10:45:42;;;;;;;29.38;18.33;;;3.40;99.90;;;;;;4965252;28;20025;-64
2022/01/13 10:48:07;;;;;;;33.20;17.73;;;3.40;99.90;;;;;;4971898;28;20031;-65
2022/01/13 10:50:55;;;;;;;27.17;17.42;;;3.50;99.90;;;;;;4974992;28;20402;-65
2022/01/13 10:53:25;;;;;;;28.38;16.80;;;3.50;99.90;;;;;;4961435;28;20031;-65
2022/01/13 10:56:14;;;;;;;27.63;16.52;;;3.50;99.90;;;;;;4966090;28;20061;-65
2022/01/13 10:58:51;;;;;;;31.77;17.25;;;3.50;99.90;;;;;;4957097;28;20146;-65
2022/01/13 11:01:17;;;;;;;30.38;16.83;;;3.50;99.90;;;;;;4970603;28;20126;-65
2022/01/13 11:03:44;;;;;;;24.15;15.90;;;3.50;99.90;;;;;;4971690;28;20530;-65
2022/01/13 11:06:12;;;;;;;20.48;16.02;;;3.50;99.90;;;;;;4958940;28;20463;-65
2022/01/13 11:08:44;;;;;;;29.55;17.08;;;3.50;99.90;;;;;;4963255;28;20045;-65
2022/01/13 11:11:20;;;;;;;23.45;16.42;;;3.40;99.90;;;;;;4965745;28;20401;-64
2022/01/13 11:13:57;;;;;;;34.17;18.77;;;3.50;99.90;;;;;;4963024;28;20059;-65
2022/01/13 11:16:24;;;;;;;26.45;17.17;;;3.50;99.90;;;;;;4952591;28;20043;-65
2022/01/13 11:18:51;;;;;;;24.15;17.45;;;3.50;99.90;;;;;;4963183;28;20121;-65
2022/01/13 11:21:17;;;;;;;29.77;17.27;;;3.50;99.90;;;;;;4964674;28;20031;-65
2022/01/13 11:23:48;;;;;;;20.15;13.82;;;3.60;99.90;;;;;;4968373;28;20089;-65
2022/01/13 11:26:14;;;;;;;19.90;14.88;;;3.60;99.90;;;;;;4974509;28;20549;-65
2022/01/13 11:28:40;;;;;;;19.75;13.07;;;3.70;99.90;;;;;;4971489;28;20046;-66
2022/01/13 11:31:12;;;;;;;20.88;14.55;;;3.80;99.90;;;;;;4964633;28;20030;-66
2022/01/13 11:33:39;;;;;;;15.15;13.38;;;3.90;99.90;;;;;;4966596;28;20034;-66
2022/01/13 11:36:07;;;;;;;21.60;14.77;;;3.90;99.90;;;;;;4971182;28;20019;-65
2022/01/13 11:38:33;;;;;;;20.17;13.73;;;4.00;99.90;;;;;;4967131;28;20031;-65
2022/01/13 11:41:03;;;;;;;17.90;12.82;;;4.10;99.90;;;;;;4966340;28;20030;-65
2022/01/13 11:43:34;;;;;;;16.48;13.05;;;4.20;99.90;;;;;;4961767;28;20031;-67
2022/01/13 11:46:23;;;;;;;15.52;11.73;;;4.20;99.90;;;;;;4963523;28;20491;-65
2022/01/13 11:49:04;;;;;;;17.85;12.32;;;4.20;99.90;;;;;;4959627;28;20038;-66
2022/01/13 11:51:42;;;;;;;15.63;13.20;;;4.20;99.90;;;;;;4970961;28;20045;-65
2022/01/13 11:54:07;;;;;;;16.92;13.25;;;4.20;99.90;;;;;;4968822;28;20027;-65
2022/01/13 11:56:33;;;;;;;20.83;14.85;;;4.20;99.90;;;;;;4969389;28;20046;-66
2022/01/13 11:58:59;;;;;;;20.85;14.93;;;4.20;99.90;;;;;;4961946;28;20043;-65
2022/01/13 12:01:30;;;;;;;22.88;14.00;;;4.20;99.90;;;;;;4973267;28;20483;-65
2022/01/13 12:04:04;;;;;;;16.15;13.23;;;4.20;99.90;;;;;;4964905;28;20394;-65
2022/01/13 12:06:46;;;;;;;14.40;12.23;;;4.20;99.90;;;;;;4958515;28;20374;-65
2022/01/13 12:09:21;;;;;;;16.00;13.27;;;4.20;99.90;;;;;;4970670;28;20116;-65
2022/01/13 12:11:50;;;;;;;16.42;12.07;;;4.10;99.90;;;;;;4958082;28;20521;-66
2022/01/13 12:14:26;;;;;;;14.48;13.00;;;4.10;99.90;;;;;;4965657;28;20045;-67
2022/01/13 12:16:55;;;;;;;21.23;14.65;;;4.10;99.90;;;;;;4966000;28;20039;-67
2022/01/13 12:19:40;;;;;;;17.13;13.50;;;4.10;99.90;;;;;;4965417;28;20031;-67
2022/01/13 12:22:13;;;;;;;16.92;14.05;;;4.10;99.90;;;;;;4964678;28;20038;-67
2022/01/13 12:24:44;;;;;;;14.63;12.48;;;4.20;99.90;;;;;;4962771;28;20034;-65
2022/01/13 12:27:10;;;;;;;14.30;12.52;;;4.10;99.90;;;;;;4965584;28;20026;-67
2022/01/13 12:29:47;;;;;;;19.27;13.10;;;4.20;99.90;;;;;;4971799;28;20015;-67
2022/01/13 12:32:16;;;;;;;17.10;13.13;;;4.20;99.90;;;;;;4970874;28;20482;-67
2022/01/13 12:34:45;;;;;;;17.88;12.50;;;4.20;99.90;;;;;;4969316;28;20095;-68
2022/01/13 12:37:13;;;;;;;15.23;12.50;;;4.10;99.90;;;;;;4964931;28;20022;-67
2022/01/13 12:39:59;;;;;;;16.85;12.75;;;4.10;99.90;;;;;;4971660;28;20035;-67
2022/01/13 12:42:28;;;;;;;15.82;12.52;;;4.10;99.90;;;;;;4963674;28;20063;-65
2022/01/13 12:47:41;;;;;;;20.75;13.73;;;4.10;99.90;;;;;;4970244;28;20042;-65
2022/01/13 12:50:32;;;;;;;45.55;19.55;;;4.00;99.90;;;;;;4963437;28;20050;-65
2022/01/13 12:53:09;;;;;;;24.20;15.27;;;4.00;99.90;;;;;;4955021;28;20027;-66
2022/01/13 12:55:37;;;;;;;19.45;14.05;;;4.00;99.90;;;;;;4968350;28;20379;-65
2022/01/13 12:58:03;;;;;;;18.23;14.45;;;4.00;99.90;;;;;;4973932;28;20034;-65
2022/01/13 13:00:29;;;;;;;23.60;14.60;;;3.90;99.90;;;;;;4968524;28;20037;-65
2022/01/13 13:03:06;;;;;;;23.00;15.25;;;3.90;99.90;;;;;;4968336;28;20081;-65
2022/01/13 13:05:38;;;;;;;21.98;15.27;;;3.90;99.90;;;;;;4970614;28;20085;-65
2022/01/13 13:08:05;;;;;;;19.80;13.60;;;3.80;99.90;;;;;;4969704;28;20027;-65
2022/01/13 13:10:31;;;;;;;22.20;14.38;;;3.80;99.90;;;;;;4977764;28;20038;-65
2022/01/13 13:13:00;;;;;;;24.23;15.73;;;3.70;99.90;;;;;;4972159;28;20089;-65
2022/01/13 13:17:53;;;;;;;23.08;15.30;;;3.70;99.90;;;;;;4975101;28;20030;-65